sensor_id;sensor_type;location;lat;lon;timestamp;temperature;humidity
18839;DHT22;9548;56.920;14.804;2023-04-09T00:00:26;0.20;99.90
18839;DHT22;9548;56.920;14.804;2023-04-09T00:02:53;0.20;99.90
18839;DHT22;9548;56.920;14.804;2023-04-09T00:05:22;0.20;99.90
18839;DHT22;9548;56.920;14.804;2023-04-09T00:07:49;0.00;99.90
18839;DHT22;9548;56.920;14.804;2023-04-09T00:10:16;0.00;99.90
18839;DHT22;9548;56.920;14.804;2023-04-09T00:12:43;-0.10;99.90
18839;DHT22;9548;56.920;14.804;2023-04-09T00:15:10;-0.20;99.90
18839;DHT22;9548;56.920;14.804;2023-04-09T00:17:37;-0.20;99.90
18839;DHT22;9548;56.920;14.804;2023-04-09T00:20:05;-0.20;99.90
18839;DHT22;9548;56.920;14.804;2023-04-09T00:22:33;-0.20;99.90
18839;DHT22;9548;56.920;14.804;2023-04-09T00:25:00;-0.30;99.90
18839;DHT22;9548;56.920;14.804;2023-04-09T00:27:28;-0.30;99.90
18839;DHT22;9548;56.920;14.804;2023-04-09T00:29:54;-0.40;99.90
18839;DHT22;9548;56.920;14.804;2023-04-09T00:32:21;-0.50;99.90
18839;DHT22;9548;56.920;14.804;2023-04-09T00:34:48;-0.40;99.90
18839;DHT22;9548;56.920;14.804;2023-04-09T00:37:15;-0.40;99.90
18839;DHT22;9548;56.920;14.804;2023-04-09T00:39:44;-0.40;99.90
18839;DHT22;9548;56.920;14.804;2023-04-09T00:42:11;-0.40;99.90
18839;DHT22;9548;56.920;14.804;2023-04-09T00:44:38;-0.50;99.90
18839;DHT22;9548;56.920;14.804;2023-04-09T00:47:05;-0.50;99.90
18839;DHT22;9548;56.920;14.804;2023-04-09T00:49:32;-0.50;99.90
18839;DHT22;9548;56.920;14.804;2023-04-09T00:51:59;-0.60;99.90
18839;DHT22;9548;56.920;14.804;2023-04-09T00:54:27;-0.70;99.90
18839;DHT22;9548;56.920;14.804;2023-04-09T00:56:56;-0.70;99.90
18839;DHT22;9548;56.920;14.804;2023-04-09T00:59:24;-0.80;99.90
18839;DHT22;9548;56.920;14.804;2023-04-09T01:01:51;-0.80;99.90
18839;DHT22;9548;56.920;14.804;2023-04-09T01:04:18;-0.90;99.90
18839;DHT22;9548;56.920;14.804;2023-04-09T01:06:50;-0.90;99.90
18839;DHT22;9548;56.920;14.804;2023-04-09T01:09:23;-0.90;99.90
18839;DHT22;9548;56.920;14.804;2023-04-09T01:11:58;-0.90;99.90
18839;DHT22;9548;56.920;14.804;2023-04-09T01:14:33;-0.80;99.90
18839;DHT22;9548;56.920;14.804;2023-04-09T01:17:04;-0.80;99.90
18839;DHT22;9548;56.920;14.804;2023-04-09T01:19:41;-0.70;99.90
18839;DHT22;9548;56.920;14.804;2023-04-09T01:22:18;-0.80;99.90
18839;DHT22;9548;56.920;14.804;2023-04-09T01:24:59;-0.70;99.90
18839;DHT22;9548;56.920;14.804;2023-04-09T01:27:38;-0.80;99.90
18839;DHT22;9548;56.920;14.804;2023-04-09T01:30:13;-0.80;99.90
18839;DHT22;9548;56.920;14.804;2023-04-09T01:32:42;-0.90;99.90
18839;DHT22;9548;56.920;14.804;2023-04-09T01:35:09;-0.90;99.90
18839;DHT22;9548;56.920;14.804;2023-04-09T01:37:36;-1.00;99.90
18839;DHT22;9548;56.920;14.804;2023-04-09T01:40:06;-1.00;99.90
18839;DHT22;9548;56.920;14.804;2023-04-09T01:42:34;-0.90;99.90
18839;DHT22;9548;56.920;14.804;2023-04-09T01:45:03;-0.90;99.90
18839;DHT22;9548;56.920;14.804;2023-04-09T01:47:32;-1.00;99.90
18839;DHT22;9548;56.920;14.804;2023-04-09T01:49:59;-1.00;99.90
18839;DHT22;9548;56.920;14.804;2023-04-09T01:52:26;-0.90;99.90
18839;DHT22;9548;56.920;14.804;2023-04-09T01:54:53;-1.00;99.90
18839;DHT22;9548;56.920;14.804;2023-04-09T01:57:20;-1.00;99.90
18839;DHT22;9548;56.920;14.804;2023-04-09T01:59:47;-1.10;99.90
18839;DHT22;9548;56.920;14.804;2023-04-09T02:02:19;-1.20;99.90
18839;DHT22;9548;56.920;14.804;2023-04-09T02:04:52;-1.20;99.90
18839;DHT22;9548;56.920;14.804;2023-04-09T02:07:26;-1.30;99.90
18839;DHT22;9548;56.920;14.804;2023-04-09T02:09:56;-1.30;99.90
18839;DHT22;9548;56.920;14.804;2023-04-09T02:12:25;-1.40;99.90
18839;DHT22;9548;56.920;14.804;2023-04-09T02:14:52;-1.50;99.90
18839;DHT22;9548;56.920;14.804;2023-04-09T02:17:20;-1.60;99.90
18839;DHT22;9548;56.920;14.804;2023-04-09T02:19:47;-1.60;99.90
18839;DHT22;9548;56.920;14.804;2023-04-09T02:22:16;-1.70;99.90
18839;DHT22;9548;56.920;14.804;2023-04-09T02:24:44;-1.80;99.90
18839;DHT22;9548;56.920;14.804;2023-04-09T02:27:11;-1.80;99.90
18839;DHT22;9548;56.920;14.804;2023-04-09T02:29:38;-1.80;99.90
18839;DHT22;9548;56.920;14.804;2023-04-09T02:32:06;-1.80;99.90
18839;DHT22;9548;56.920;14.804;2023-04-09T02:34:32;-1.80;99.90
18839;DHT22;9548;56.920;14.804;2023-04-09T02:36:59;-1.80;99.90
18839;DHT22;9548;56.920;14.804;2023-04-09T02:39:28;-1.90;99.90
18839;DHT22;9548;56.920;14.804;2023-04-09T02:41:55;-1.90;99.90
18839;DHT22;9548;56.920;14.804;2023-04-09T02:44:22;-2.00;99.90
18839;DHT22;9548;56.920;14.804;2023-04-09T02:46:50;-2.00;99.90
18839;DHT22;9548;56.920;14.804;2023-04-09T02:49:17;-2.00;99.90
18839;DHT22;9548;56.920;14.804;2023-04-09T02:51:44;-2.00;99.90
18839;DHT22;9548;56.920;14.804;2023-04-09T02:54:11;-2.10;99.90
18839;DHT22;9548;56.920;14.804;2023-04-09T02:56:39;-2.10;99.90
18839;DHT22;9548;56.920;14.804;2023-04-09T02:59:06;-2.20;99.90
18839;DHT22;9548;56.920;14.804;2023-04-09T03:01:33;-2.20;99.90
18839;DHT22;9548;56.920;14.804;2023-04-09T03:04:00;-2.30;99.90
18839;DHT22;9548;56.920;14.804;2023-04-09T03:06:27;-2.30;99.90
18839;DHT22;9548;56.920;14.804;2023-04-09T03:08:54;-2.40;99.90
18839;DHT22;9548;56.920;14.804;2023-04-09T03:11:21;-2.40;99.90
18839;DHT22;9548;56.920;14.804;2023-04-09T03:13:49;-2.50;99.90
18839;DHT22;9548;56.920;14.804;2023-04-09T03:16:16;-2.50;99.90
18839;DHT22;9548;56.920;14.804;2023-04-09T03:18:43;-2.50;99.90
18839;DHT22;9548;56.920;14.804;2023-04-09T03:21:10;-2.50;99.90
18839;DHT22;9548;56.920;14.804;2023-04-09T03:23:37;-2.50;99.90
18839;DHT22;9548;56.920;14.804;2023-04-09T03:26:04;-2.50;99.90
18839;DHT22;9548;56.920;14.804;2023-04-09T03:28:31;-2.50;99.90
18839;DHT22;9548;56.920;14.804;2023-04-09T03:31:00;-2.50;99.90
18839;DHT22;9548;56.920;14.804;2023-04-09T03:33:27;-2.50;99.90
18839;DHT22;9548;56.920;14.804;2023-04-09T03:35:53;-2.50;99.90
18839;DHT22;9548;56.920;14.804;2023-04-09T03:38:21;-2.60;99.90
18839;DHT22;9548;56.920;14.804;2023-04-09T03:40:47;-2.60;99.90
18839;DHT22;9548;56.920;14.804;2023-04-09T03:43:14;-2.60;99.90
18839;DHT22;9548;56.920;14.804;2023-04-09T03:45:41;-2.50;99.90
18839;DHT22;9548;56.920;14.804;2023-04-09T03:48:09;-2.50;99.90
18839;DHT22;9548;56.920;14.804;2023-04-09T03:50:37;-2.60;99.90
18839;DHT22;9548;56.920;14.804;2023-04-09T03:53:05;-2.50;99.90
18839;DHT22;9548;56.920;14.804;2023-04-09T03:55:32;-2.60;99.90
18839;DHT22;9548;56.920;14.804;2023-04-09T03:57:59;-2.60;99.90
18839;DHT22;9548;56.920;14.804;2023-04-09T04:00:26;-2.60;99.90
18839;DHT22;9548;56.920;14.804;2023-04-09T04:02:53;-2.60;99.90
18839;DHT22;9548;56.920;14.804;2023-04-09T04:05:23;-2.50;99.90
18839;DHT22;9548;56.920;14.804;2023-04-09T04:07:51;-2.50;99.90
18839;DHT22;9548;56.920;14.804;2023-04-09T04:10:18;-2.60;99.90
18839;DHT22;9548;56.920;14.804;2023-04-09T04:12:45;-2.70;99.90
18839;DHT22;9548;56.920;14.804;2023-04-09T04:15:12;-2.70;99.90
18839;DHT22;9548;56.920;14.804;2023-04-09T04:17:39;-2.80;99.90
18839;DHT22;9548;56.920;14.804;2023-04-09T04:20:07;-2.80;99.90
18839;DHT22;9548;56.920;14.804;2023-04-09T04:22:36;-2.80;99.90
18839;DHT22;9548;56.920;14.804;2023-04-09T04:25:03;-2.80;99.90
18839;DHT22;9548;56.920;14.804;2023-04-09T04:27:30;-2.70;99.90
18839;DHT22;9548;56.920;14.804;2023-04-09T04:29:57;-2.70;99.90
18839;DHT22;9548;56.920;14.804;2023-04-09T04:32:25;-2.70;99.90
18839;DHT22;9548;56.920;14.804;2023-04-09T04:34:52;-2.70;99.90
18839;DHT22;9548;56.920;14.804;2023-04-09T04:37:19;-2.80;99.90
18839;DHT22;9548;56.920;14.804;2023-04-09T04:39:47;-2.70;99.90
18839;DHT22;9548;56.920;14.804;2023-04-09T04:42:14;-2.70;99.90
18839;DHT22;9548;56.920;14.804;2023-04-09T04:44:41;-2.70;99.90
18839;DHT22;9548;56.920;14.804;2023-04-09T04:47:08;-2.70;99.90
18839;DHT22;9548;56.920;14.804;2023-04-09T04:49:35;-2.60;99.90
18839;DHT22;9548;56.920;14.804;2023-04-09T04:52:02;-2.60;99.90
18839;DHT22;9548;56.920;14.804;2023-04-09T04:54:29;-2.70;99.90
18839;DHT22;9548;56.920;14.804;2023-04-09T04:56:57;-2.60;99.90
18839;DHT22;9548;56.920;14.804;2023-04-09T04:59:24;-2.50;99.90
18839;DHT22;9548;56.920;14.804;2023-04-09T05:01:51;-2.30;99.90
18839;DHT22;9548;56.920;14.804;2023-04-09T05:04:18;-2.20;99.90
18839;DHT22;9548;56.920;14.804;2023-04-09T05:06:44;-2.10;99.90
18839;DHT22;9548;56.920;14.804;2023-04-09T05:09:11;-2.00;99.90
18839;DHT22;9548;56.920;14.804;2023-04-09T05:11:38;-1.90;99.90
18839;DHT22;9548;56.920;14.804;2023-04-09T05:14:06;-1.80;99.90
18839;DHT22;9548;56.920;14.804;2023-04-09T05:16:33;-1.80;99.90
18839;DHT22;9548;56.920;14.804;2023-04-09T05:19:00;-1.70;99.90
18839;DHT22;9548;56.920;14.804;2023-04-09T05:21:27;-1.70;99.90
18839;DHT22;9548;56.920;14.804;2023-04-09T05:23:54;-1.60;99.90
18839;DHT22;9548;56.920;14.804;2023-04-09T05:26:21;-1.50;99.90
18839;DHT22;9548;56.920;14.804;2023-04-09T05:28:48;-1.50;99.90
18839;DHT22;9548;56.920;14.804;2023-04-09T05:31:16;-1.40;99.90
18839;DHT22;9548;56.920;14.804;2023-04-09T05:33:43;-1.30;99.90
18839;DHT22;9548;56.920;14.804;2023-04-09T05:36:14;-1.30;99.90
18839;DHT22;9548;56.920;14.804;2023-04-09T05:38:42;-1.20;99.90
18839;DHT22;9548;56.920;14.804;2023-04-09T05:41:09;-1.10;99.90
18839;DHT22;9548;56.920;14.804;2023-04-09T05:43:36;-1.00;99.90
18839;DHT22;9548;56.920;14.804;2023-04-09T05:46:03;-0.90;99.90
18839;DHT22;9548;56.920;14.804;2023-04-09T05:48:34;-0.80;99.90
18839;DHT22;9548;56.920;14.804;2023-04-09T05:51:01;-0.70;99.90
18839;DHT22;9548;56.920;14.804;2023-04-09T05:53:28;-0.60;99.90
18839;DHT22;9548;56.920;14.804;2023-04-09T05:55:55;-0.50;99.90
18839;DHT22;9548;56.920;14.804;2023-04-09T05:58:23;-0.30;99.90
18839;DHT22;9548;56.920;14.804;2023-04-09T06:00:49;-0.20;99.90
18839;DHT22;9548;56.920;14.804;2023-04-09T06:03:17;-0.10;99.90
18839;DHT22;9548;56.920;14.804;2023-04-09T06:05:45;-0.10;99.90
18839;DHT22;9548;56.920;14.804;2023-04-09T06:08:12;0.00;99.90
18839;DHT22;9548;56.920;14.804;2023-04-09T06:10:39;0.10;99.90
18839;DHT22;9548;56.920;14.804;2023-04-09T06:13:06;0.20;99.90
18839;DHT22;9548;56.920;14.804;2023-04-09T06:15:33;0.40;99.90
18839;DHT22;9548;56.920;14.804;2023-04-09T06:18:00;0.50;99.90
18839;DHT22;9548;56.920;14.804;2023-04-09T06:20:27;0.70;99.90
18839;DHT22;9548;56.920;14.804;2023-04-09T06:22:56;0.80;99.90
18839;DHT22;9548;56.920;14.804;2023-04-09T06:25:23;0.90;99.90
18839;DHT22;9548;56.920;14.804;2023-04-09T06:27:50;1.10;99.90
18839;DHT22;9548;56.920;14.804;2023-04-09T06:30:17;1.10;99.90
18839;DHT22;9548;56.920;14.804;2023-04-09T06:32:44;1.20;99.90
18839;DHT22;9548;56.920;14.804;2023-04-09T06:35:13;1.30;99.90
18839;DHT22;9548;56.920;14.804;2023-04-09T06:37:40;1.40;99.90
18839;DHT22;9548;56.920;14.804;2023-04-09T06:40:09;1.40;99.90
18839;DHT22;9548;56.920;14.804;2023-04-09T06:42:36;1.60;99.90
18839;DHT22;9548;56.920;14.804;2023-04-09T06:45:04;1.80;99.90
18839;DHT22;9548;56.920;14.804;2023-04-09T06:47:32;2.10;99.90
18839;DHT22;9548;56.920;14.804;2023-04-09T06:49:59;2.20;99.90
18839;DHT22;9548;56.920;14.804;2023-04-09T06:52:26;2.40;99.90
18839;DHT22;9548;56.920;14.804;2023-04-09T06:54:53;2.50;99.90
18839;DHT22;9548;56.920;14.804;2023-04-09T06:57:22;2.70;99.90
18839;DHT22;9548;56.920;14.804;2023-04-09T06:59:49;2.80;99.90
18839;DHT22;9548;56.920;14.804;2023-04-09T07:02:15;2.90;99.90
18839;DHT22;9548;56.920;14.804;2023-04-09T07:04:43;3.10;99.90
18839;DHT22;9548;56.920;14.804;2023-04-09T07:07:10;3.30;99.90
18839;DHT22;9548;56.920;14.804;2023-04-09T07:09:37;3.40;99.90
18839;DHT22;9548;56.920;14.804;2023-04-09T07:12:04;3.50;99.90
18839;DHT22;9548;56.920;14.804;2023-04-09T07:14:32;3.70;99.90
18839;DHT22;9548;56.920;14.804;2023-04-09T07:16:59;3.80;99.90
18839;DHT22;9548;56.920;14.804;2023-04-09T07:19:26;3.90;99.90
18839;DHT22;9548;56.920;14.804;2023-04-09T07:21:53;4.10;99.90
18839;DHT22;9548;56.920;14.804;2023-04-09T07:24:20;4.30;99.90
18839;DHT22;9548;56.920;14.804;2023-04-09T07:26:47;4.40;99.90
18839;DHT22;9548;56.920;14.804;2023-04-09T07:29:14;4.50;99.90
18839;DHT22;9548;56.920;14.804;2023-04-09T07:31:43;4.70;99.90
18839;DHT22;9548;56.920;14.804;2023-04-09T07:34:11;4.90;99.90
18839;DHT22;9548;56.920;14.804;2023-04-09T07:36:37;5.00;99.90
18839;DHT22;9548;56.920;14.804;2023-04-09T07:39:05;5.20;99.90
18839;DHT22;9548;56.920;14.804;2023-04-09T07:41:32;5.30;99.90
18839;DHT22;9548;56.920;14.804;2023-04-09T07:43:59;5.40;99.90
18839;DHT22;9548;56.920;14.804;2023-04-09T07:46:27;5.50;99.90
18839;DHT22;9548;56.920;14.804;2023-04-09T07:48:56;5.60;99.90
18839;DHT22;9548;56.920;14.804;2023-04-09T07:51:24;5.70;99.90
18839;DHT22;9548;56.920;14.804;2023-04-09T07:53:51;5.80;99.90
18839;DHT22;9548;56.920;14.804;2023-04-09T07:56:18;6.00;99.90
18839;DHT22;9548;56.920;14.804;2023-04-09T07:58:45;6.10;99.90
18839;DHT22;9548;56.920;14.804;2023-04-09T08:01:13;6.20;99.90
18839;DHT22;9548;56.920;14.804;2023-04-09T08:03:40;6.30;99.90
18839;DHT22;9548;56.920;14.804;2023-04-09T08:06:08;6.40;99.90
18839;DHT22;9548;56.920;14.804;2023-04-09T08:08:35;6.60;99.90
18839;DHT22;9548;56.920;14.804;2023-04-09T08:11:03;6.70;99.90
18839;DHT22;9548;56.920;14.804;2023-04-09T08:13:30;6.90;99.90
18839;DHT22;9548;56.920;14.804;2023-04-09T08:15:59;7.00;99.90
18839;DHT22;9548;56.920;14.804;2023-04-09T08:18:26;7.00;99.90
18839;DHT22;9548;56.920;14.804;2023-04-09T08:20:53;7.20;99.90
18839;DHT22;9548;56.920;14.804;2023-04-09T08:23:22;7.30;99.90
18839;DHT22;9548;56.920;14.804;2023-04-09T08:25:49;7.50;99.90
18839;DHT22;9548;56.920;14.804;2023-04-09T08:28:16;7.60;99.90
18839;DHT22;9548;56.920;14.804;2023-04-09T08:30:42;7.80;99.90
18839;DHT22;9548;56.920;14.804;2023-04-09T08:33:09;8.00;99.90
18839;DHT22;9548;56.920;14.804;2023-04-09T08:35:36;8.20;99.90
18839;DHT22;9548;56.920;14.804;2023-04-09T08:38:05;8.30;99.50
18839;DHT22;9548;56.920;14.804;2023-04-09T08:40:35;8.40;98.60
18839;DHT22;9548;56.920;14.804;2023-04-09T08:43:04;8.60;98.50
18839;DHT22;9548;56.920;14.804;2023-04-09T08:45:32;8.80;97.90
18839;DHT22;9548;56.920;14.804;2023-04-09T08:47:59;8.90;96.40
18839;DHT22;9548;56.920;14.804;2023-04-09T08:50:28;9.00;96.40
18839;DHT22;9548;56.920;14.804;2023-04-09T08:52:57;9.10;96.40
18839;DHT22;9548;56.920;14.804;2023-04-09T08:55:24;9.30;95.50
18839;DHT22;9548;56.920;14.804;2023-04-09T08:57:53;9.40;95.10
18839;DHT22;9548;56.920;14.804;2023-04-09T09:00:20;9.60;94.10
18839;DHT22;9548;56.920;14.804;2023-04-09T09:03:04;9.70;94.60
18839;DHT22;9548;56.920;14.804;2023-04-09T09:05:36;9.90;95.00
18839;DHT22;9548;56.920;14.804;2023-04-09T09:08:05;10.20;94.30
18839;DHT22;9548;56.920;14.804;2023-04-09T09:10:40;10.50;93.80
18839;DHT22;9548;56.920;14.804;2023-04-09T09:13:23;10.80;93.30
18839;DHT22;9548;56.920;14.804;2023-04-09T09:15:51;11.30;92.70
18839;DHT22;9548;56.920;14.804;2023-04-09T09:18:20;11.60;91.80
18839;DHT22;9548;56.920;14.804;2023-04-09T09:20:47;11.70;90.70
18839;DHT22;9548;56.920;14.804;2023-04-09T09:23:14;11.90;89.90
18839;DHT22;9548;56.920;14.804;2023-04-09T09:25:42;11.80;88.70
18839;DHT22;9548;56.920;14.804;2023-04-09T09:28:10;11.80;86.60
18839;DHT22;9548;56.920;14.804;2023-04-09T09:30:39;11.70;86.90
18839;DHT22;9548;56.920;14.804;2023-04-09T09:33:07;11.80;87.90
18839;DHT22;9548;56.920;14.804;2023-04-09T09:35:47;12.10;85.00
18839;DHT22;9548;56.920;14.804;2023-04-09T09:38:15;12.60;85.30
18839;DHT22;9548;56.920;14.804;2023-04-09T09:40:41;13.10;83.50
18839;DHT22;9548;56.920;14.804;2023-04-09T09:43:08;13.20;77.30
18839;DHT22;9548;56.920;14.804;2023-04-09T09:45:36;13.60;79.20
18839;DHT22;9548;56.920;14.804;2023-04-09T09:48:05;14.10;76.70
18839;DHT22;9548;56.920;14.804;2023-04-09T09:50:34;14.60;71.70
18839;DHT22;9548;56.920;14.804;2023-04-09T09:53:03;15.00;68.00
18839;DHT22;9548;56.920;14.804;2023-04-09T09:55:33;15.00;67.10
18839;DHT22;9548;56.920;14.804;2023-04-09T09:58:07;15.50;68.30
18839;DHT22;9548;56.920;14.804;2023-04-09T10:00:38;15.70;68.00
18839;DHT22;9548;56.920;14.804;2023-04-09T10:03:12;16.20;65.30
18839;DHT22;9548;56.920;14.804;2023-04-09T10:05:40;16.70;63.70
18839;DHT22;9548;56.920;14.804;2023-04-09T10:08:08;17.00;63.00
18839;DHT22;9548;56.920;14.804;2023-04-09T10:10:38;18.00;61.50
18839;DHT22;9548;56.920;14.804;2023-04-09T10:13:07;19.40;58.60
18839;DHT22;9548;56.920;14.804;2023-04-09T10:15:35;20.10;54.60
18839;DHT22;9548;56.920;14.804;2023-04-09T10:18:03;20.10;54.90
18839;DHT22;9548;56.920;14.804;2023-04-09T10:20:38;20.40;54.30
18839;DHT22;9548;56.920;14.804;2023-04-09T10:23:20;21.60;53.60
18839;DHT22;9548;56.920;14.804;2023-04-09T10:25:50;21.80;52.60
18839;DHT22;9548;56.920;14.804;2023-04-09T10:28:17;22.00;50.00
18839;DHT22;9548;56.920;14.804;2023-04-09T10:30:44;22.20;50.70
18839;DHT22;9548;56.920;14.804;2023-04-09T10:33:13;22.80;47.80
18839;DHT22;9548;56.920;14.804;2023-04-09T10:35:46;22.80;46.50
18839;DHT22;9548;56.920;14.804;2023-04-09T10:38:13;23.10;47.30
18839;DHT22;9548;56.920;14.804;2023-04-09T10:40:41;24.00;48.40
18839;DHT22;9548;56.920;14.804;2023-04-09T10:43:09;25.20;46.40
18839;DHT22;9548;56.920;14.804;2023-04-09T10:45:40;25.90;43.60
18839;DHT22;9548;56.920;14.804;2023-04-09T10:48:11;26.30;44.30
18839;DHT22;9548;56.920;14.804;2023-04-09T10:50:42;26.40;43.80
18839;DHT22;9548;56.920;14.804;2023-04-09T10:53:21;26.30;41.30
18839;DHT22;9548;56.920;14.804;2023-04-09T10:55:51;26.60;41.60
18839;DHT22;9548;56.920;14.804;2023-04-09T10:58:18;26.50;39.70
18839;DHT22;9548;56.920;14.804;2023-04-09T11:00:48;26.70;40.20
18839;DHT22;9548;56.920;14.804;2023-04-09T11:03:23;27.00;40.20
18839;DHT22;9548;56.920;14.804;2023-04-09T11:05:54;27.30;39.00
18839;DHT22;9548;56.920;14.804;2023-04-09T11:08:27;28.20;39.90
18839;DHT22;9548;56.920;14.804;2023-04-09T11:10:55;29.20;37.90
18839;DHT22;9548;56.920;14.804;2023-04-09T11:13:26;29.90;37.30
18839;DHT22;9548;56.920;14.804;2023-04-09T11:15:53;30.40;36.60
18839;DHT22;9548;56.920;14.804;2023-04-09T11:18:22;30.90;34.80
18839;DHT22;9548;56.920;14.804;2023-04-09T11:20:54;31.40;36.00
18839;DHT22;9548;56.920;14.804;2023-04-09T11:23:22;31.60;36.20
18839;DHT22;9548;56.920;14.804;2023-04-09T11:25:51;31.70;32.90
18839;DHT22;9548;56.920;14.804;2023-04-09T11:28:18;31.60;36.40
18839;DHT22;9548;56.920;14.804;2023-04-09T11:30:46;31.30;35.80
18839;DHT22;9548;56.920;14.804;2023-04-09T11:33:13;31.90;33.70
18839;DHT22;9548;56.920;14.804;2023-04-09T11:35:40;31.90;35.50
18839;DHT22;9548;56.920;14.804;2023-04-09T11:38:08;32.40;34.90
18839;DHT22;9548;56.920;14.804;2023-04-09T11:40:36;32.90;33.50
18839;DHT22;9548;56.920;14.804;2023-04-09T11:43:10;33.40;30.60
18839;DHT22;9548;56.920;14.804;2023-04-09T11:45:37;33.80;30.50
18839;DHT22;9548;56.920;14.804;2023-04-09T11:48:05;34.00;34.40
18839;DHT22;9548;56.920;14.804;2023-04-09T11:50:32;34.90;33.60
18839;DHT22;9548;56.920;14.804;2023-04-09T11:52:59;35.50;33.10
18839;DHT22;9548;56.920;14.804;2023-04-09T11:55:28;36.10;31.00
18839;DHT22;9548;56.920;14.804;2023-04-09T11:57:56;35.90;29.70
18839;DHT22;9548;56.920;14.804;2023-04-09T12:00:26;35.50;29.60
18839;DHT22;9548;56.920;14.804;2023-04-09T12:02:59;35.80;30.20
18839;DHT22;9548;56.920;14.804;2023-04-09T12:05:28;36.50;29.70
18839;DHT22;9548;56.920;14.804;2023-04-09T12:07:57;36.20;27.20
18839;DHT22;9548;56.920;14.804;2023-04-09T12:10:27;35.60;28.70
18839;DHT22;9548;56.920;14.804;2023-04-09T12:12:59;35.30;28.90
18839;DHT22;9548;56.920;14.804;2023-04-09T12:15:31;36.10;28.90
18839;DHT22;9548;56.920;14.804;2023-04-09T12:17:58;36.10;28.80
18839;DHT22;9548;56.920;14.804;2023-04-09T12:20:29;35.70;28.50
18839;DHT22;9548;56.920;14.804;2023-04-09T12:22:57;34.90;27.20
18839;DHT22;9548;56.920;14.804;2023-04-09T12:25:24;35.70;29.30
18839;DHT22;9548;56.920;14.804;2023-04-09T12:27:54;36.00;29.70
18839;DHT22;9548;56.920;14.804;2023-04-09T12:30:21;37.00;28.70
18839;DHT22;9548;56.920;14.804;2023-04-09T12:32:48;36.00;25.20
18839;DHT22;9548;56.920;14.804;2023-04-09T12:35:16;35.70;27.80
18839;DHT22;9548;56.920;14.804;2023-04-09T12:37:43;35.40;28.50
18839;DHT22;9548;56.920;14.804;2023-04-09T12:40:11;35.10;26.70
18839;DHT22;9548;56.920;14.804;2023-04-09T12:42:39;34.60;27.00
18839;DHT22;9548;56.920;14.804;2023-04-09T12:45:08;35.10;28.80
18839;DHT22;9548;56.920;14.804;2023-04-09T12:47:36;34.60;28.00
18839;DHT22;9548;56.920;14.804;2023-04-09T12:50:05;35.60;29.00
18839;DHT22;9548;56.920;14.804;2023-04-09T12:52:32;36.00;27.10
18839;DHT22;9548;56.920;14.804;2023-04-09T12:55:00;35.40;26.40
18839;DHT22;9548;56.920;14.804;2023-04-09T12:57:27;36.30;27.20
18839;DHT22;9548;56.920;14.804;2023-04-09T12:59:54;36.10;26.90
18839;DHT22;9548;56.920;14.804;2023-04-09T13:02:23;35.70;26.60
18839;DHT22;9548;56.920;14.804;2023-04-09T13:04:50;35.30;27.70
18839;DHT22;9548;56.920;14.804;2023-04-09T13:07:18;35.20;28.00
18839;DHT22;9548;56.920;14.804;2023-04-09T13:09:45;36.00;25.60
18839;DHT22;9548;56.920;14.804;2023-04-09T13:12:13;35.50;27.40
18839;DHT22;9548;56.920;14.804;2023-04-09T13:14:41;36.30;28.50
18839;DHT22;9548;56.920;14.804;2023-04-09T13:17:08;37.10;29.00
18839;DHT22;9548;56.920;14.804;2023-04-09T13:19:37;37.60;28.30
18839;DHT22;9548;56.920;14.804;2023-04-09T13:22:03;37.90;27.60
18839;DHT22;9548;56.920;14.804;2023-04-09T13:24:32;38.30;26.40
18839;DHT22;9548;56.920;14.804;2023-04-09T13:27:00;37.90;28.60
18839;DHT22;9548;56.920;14.804;2023-04-09T13:29:27;38.10;28.80
18839;DHT22;9548;56.920;14.804;2023-04-09T13:31:54;38.30;25.80
18839;DHT22;9548;56.920;14.804;2023-04-09T13:34:22;38.80;25.90
18839;DHT22;9548;56.920;14.804;2023-04-09T13:36:51;38.60;26.80
18839;DHT22;9548;56.920;14.804;2023-04-09T13:39:17;38.30;26.80
18839;DHT22;9548;56.920;14.804;2023-04-09T13:41:45;38.50;28.10
18839;DHT22;9548;56.920;14.804;2023-04-09T13:44:12;38.30;25.90
18839;DHT22;9548;56.920;14.804;2023-04-09T13:46:39;38.10;28.20
18839;DHT22;9548;56.920;14.804;2023-04-09T13:49:05;38.30;26.70
18839;DHT22;9548;56.920;14.804;2023-04-09T13:51:33;38.50;26.80
18839;DHT22;9548;56.920;14.804;2023-04-09T13:54:01;38.00;24.90
18839;DHT22;9548;56.920;14.804;2023-04-09T13:56:28;37.70;28.40
18839;DHT22;9548;56.920;14.804;2023-04-09T13:58:55;36.80;26.90
18839;DHT22;9548;56.920;14.804;2023-04-09T14:01:22;37.20;28.60
18839;DHT22;9548;56.920;14.804;2023-04-09T14:03:51;37.60;27.90
18839;DHT22;9548;56.920;14.804;2023-04-09T14:06:18;38.20;27.70
18839;DHT22;9548;56.920;14.804;2023-04-09T14:08:45;38.80;25.60
18839;DHT22;9548;56.920;14.804;2023-04-09T14:11:14;38.60;24.80
18839;DHT22;9548;56.920;14.804;2023-04-09T14:13:41;38.60;26.90
18839;DHT22;9548;56.920;14.804;2023-04-09T14:16:08;38.90;26.90
18839;DHT22;9548;56.920;14.804;2023-04-09T14:18:35;38.80;25.00
18839;DHT22;9548;56.920;14.804;2023-04-09T14:21:04;37.80;27.30
18839;DHT22;9548;56.920;14.804;2023-04-09T14:23:31;38.10;24.90
18839;DHT22;9548;56.920;14.804;2023-04-09T14:25:58;37.40;25.00
18839;DHT22;9548;56.920;14.804;2023-04-09T14:28:26;38.60;27.40
18839;DHT22;9548;56.920;14.804;2023-04-09T14:30:53;39.60;24.80
18839;DHT22;9548;56.920;14.804;2023-04-09T14:33:20;40.10;25.70
18839;DHT22;9548;56.920;14.804;2023-04-09T14:35:47;40.00;25.30
18839;DHT22;9548;56.920;14.804;2023-04-09T14:38:14;39.40;24.90
18839;DHT22;9548;56.920;14.804;2023-04-09T14:40:42;37.70;24.40
18839;DHT22;9548;56.920;14.804;2023-04-09T14:43:09;37.00;25.40
18839;DHT22;9548;56.920;14.804;2023-04-09T14:45:37;37.30;27.40
18839;DHT22;9548;56.920;14.804;2023-04-09T14:48:05;37.30;25.10
18839;DHT22;9548;56.920;14.804;2023-04-09T14:50:32;37.90;25.00
18839;DHT22;9548;56.920;14.804;2023-04-09T14:52:59;38.60;24.10
18839;DHT22;9548;56.920;14.804;2023-04-09T14:55:26;38.60;25.50
18839;DHT22;9548;56.920;14.804;2023-04-09T14:57:53;37.70;26.40
18839;DHT22;9548;56.920;14.804;2023-04-09T15:00:20;37.90;25.10
18839;DHT22;9548;56.920;14.804;2023-04-09T15:02:49;38.30;26.50
18839;DHT22;9548;56.920;14.804;2023-04-09T15:05:16;39.00;26.60
18839;DHT22;9548;56.920;14.804;2023-04-09T15:07:42;39.00;25.80
18839;DHT22;9548;56.920;14.804;2023-04-09T15:10:10;39.00;25.20
18839;DHT22;9548;56.920;14.804;2023-04-09T15:12:37;37.40;24.40
18839;DHT22;9548;56.920;14.804;2023-04-09T15:15:05;37.80;27.10
18839;DHT22;9548;56.920;14.804;2023-04-09T15:17:32;38.30;25.70
18839;DHT22;9548;56.920;14.804;2023-04-09T15:20:01;38.20;24.50
18839;DHT22;9548;56.920;14.804;2023-04-09T15:22:28;38.10;25.70
18839;DHT22;9548;56.920;14.804;2023-04-09T15:24:55;37.40;26.00
18839;DHT22;9548;56.920;14.804;2023-04-09T15:27:22;37.90;25.40
18839;DHT22;9548;56.920;14.804;2023-04-09T15:29:50;38.30;24.90
18839;DHT22;9548;56.920;14.804;2023-04-09T15:32:17;38.50;25.80
18839;DHT22;9548;56.920;14.804;2023-04-09T15:34:44;38.10;24.20
18839;DHT22;9548;56.920;14.804;2023-04-09T15:37:12;38.20;23.90
18839;DHT22;9548;56.920;14.804;2023-04-09T15:39:39;38.10;24.00